UAL2067 KEWR-KPBI
Flight info
| Callsign | UAL2067 |
|---|---|
| Flight time | 2h 19m |
| Altitude | 38000 |
| Route | ELVAE NECCK WHITE Q409 CRPLR EARZZ Q131 WAALT Y289 DULEE CLMNT2 |
| Aircraft | A319/M-SDE3FGHIRWY/LB1 |
Departure
| Time | 2026-04-14 06:18 |
|---|---|
| Airport | Newark Liberty International Airport (KEWR) |
Arrival
| Time | 2026-04-14 08:37 |
|---|---|
| Airport | Palm Beach International Airport (KPBI) |
| Time | Latitude | Longitude | Altitude | Speed | Heading |
|---|---|---|---|---|---|
| 2026-04-14 05:56 | 40.68420 | -74.18237 | 22 ft | 0 kts | 214° |
| 2026-04-14 06:09 | 40.68423 | -74.18234 | 22 ft | 2 kts | 214° |
| 2026-04-14 06:09 | 40.68439 | -74.18220 | 22 ft | 3 kts | 214° |
| 2026-04-14 06:09 | 40.68455 | -74.18206 | 24 ft | 3 kts | 210° |
| 2026-04-14 06:09 | 40.68472 | -74.18196 | 22 ft | 3 kts | 180° |
| 2026-04-14 06:10 | 40.68488 | -74.18201 | 24 ft | 3 kts | 133° |
| 2026-04-14 06:10 | 40.68497 | -74.18220 | 22 ft | 2 kts | 96° |
| 2026-04-14 06:10 | 40.68498 | -74.18235 | 22 ft | 3 kts | 95° |
| 2026-04-14 06:10 | 40.68499 | -74.18246 | 22 ft | 0 kts | 95° |
| 2026-04-14 06:12 | 40.68498 | -74.18244 | 22 ft | 2 kts | 95° |
| 2026-04-14 06:12 | 40.68476 | -74.18158 | 22 ft | 17 kts | 122° |
| 2026-04-14 06:12 | 40.68408 | -74.18006 | 22 ft | 21 kts | 115° |
| 2026-04-14 06:13 | 40.68345 | -74.17831 | 22 ft | 14 kts | 116° |
| 2026-04-14 06:13 | 40.68353 | -74.17711 | 24 ft | 16 kts | 36° |
| 2026-04-14 06:13 | 40.68462 | -74.17642 | 23 ft | 19 kts | 24° |
| 2026-04-14 06:13 | 40.68592 | -74.17564 | 22 ft | 22 kts | 24° |
| 2026-04-14 06:14 | 40.68736 | -74.17474 | 23 ft | 20 kts | 28° |
| 2026-04-14 06:14 | 40.68862 | -74.17385 | 23 ft | 20 kts | 27° |
| 2026-04-14 06:14 | 40.68990 | -74.17304 | 24 ft | 21 kts | 26° |
| 2026-04-14 06:14 | 40.69132 | -74.17214 | 22 ft | 24 kts | 26° |
| 2026-04-14 06:15 | 40.69291 | -74.17112 | 22 ft | 27 kts | 26° |
| 2026-04-14 06:15 | 40.69458 | -74.17006 | 22 ft | 21 kts | 25° |
| 2026-04-14 06:15 | 40.69600 | -74.16917 | 22 ft | 24 kts | 25° |
| 2026-04-14 06:15 | 40.69755 | -74.16819 | 22 ft | 21 kts | 26° |
| 2026-04-14 06:16 | 40.69896 | -74.16763 | 22 ft | 19 kts | 4° |
| 2026-04-14 06:16 | 40.69911 | -74.16681 | 22 ft | 11 kts | 95° |
| 2026-04-14 06:16 | 40.69908 | -74.16568 | 21 ft | 14 kts | 94° |
| 2026-04-14 06:16 | 40.69881 | -74.16422 | 22 ft | 18 kts | 115° |
| 2026-04-14 06:17 | 40.69824 | -74.16268 | 21 ft | 17 kts | 117° |
| 2026-04-14 06:17 | 40.69732 | -74.16175 | 21 ft | 18 kts | 185° |
| 2026-04-14 06:17 | 40.69595 | -74.16257 | 23 ft | 28 kts | 205° |
| 2026-04-14 06:17 | 40.69284 | -74.16452 | 24 ft | 79 kts | 205° |
| 2026-04-14 06:18 | 40.68601 | -74.16888 | 23 ft | 138 kts | 206° |
| 2026-04-14 06:18 | 40.67669 | -74.17488 | 489 ft | 150 kts | 207° |
| 2026-04-14 06:18 | 40.66635 | -74.17808 | 1091 ft | 164 kts | 176° |
| 2026-04-14 06:18 | 40.65524 | -74.17349 | 1808 ft | 169 kts | 163° |
| 2026-04-14 06:19 | 40.64296 | -74.17218 | 2175 ft | 186 kts | 198° |
| 2026-04-14 06:19 | 40.63154 | -74.18064 | 2711 ft | 195 kts | 225° |
| 2026-04-14 06:19 | 40.62075 | -74.19335 | 3135 ft | 222 kts | 225° |
| 2026-04-14 06:19 | 40.60838 | -74.20741 | 3720 ft | 248 kts | 224° |
| 2026-04-14 06:20 | 40.59474 | -74.22269 | 4556 ft | 263 kts | 224° |
| 2026-04-14 06:20 | 40.58062 | -74.23837 | 5646 ft | 268 kts | 224° |
| 2026-04-14 06:20 | 40.56583 | -74.25371 | 6737 ft | 276 kts | 217° |
| 2026-04-14 06:20 | 40.54778 | -74.26348 | 7770 ft | 288 kts | 197° |
| 2026-04-14 06:21 | 40.52747 | -74.26481 | 8826 ft | 300 kts | 177° |
| 2026-04-14 06:21 | 40.50711 | -74.25718 | 9860 ft | 309 kts | 163° |
| 2026-04-14 06:21 | 40.48660 | -74.24687 | 10483 ft | 327 kts | 163° |
| 2026-04-14 06:21 | 40.46452 | -74.23587 | 10833 ft | 351 kts | 163° |
| 2026-04-14 06:22 | 40.44132 | -74.22437 | 11499 ft | 360 kts | 163° |
| 2026-04-14 06:22 | 40.41806 | -74.21280 | 12226 ft | 365 kts | 162° |
| 2026-04-14 06:22 | 40.39419 | -74.20093 | 13091 ft | 369 kts | 163° |
| 2026-04-14 06:22 | 40.37004 | -74.18894 | 13911 ft | 373 kts | 163° |
| 2026-04-14 06:23 | 40.34559 | -74.17704 | 14618 ft | 376 kts | 166° |
| 2026-04-14 06:23 | 40.32011 | -74.16933 | 15313 ft | 376 kts | 177° |
| 2026-04-14 06:23 | 40.29407 | -74.16793 | 16016 ft | 375 kts | 188° |
| 2026-04-14 06:23 | 40.26839 | -74.17283 | 16717 ft | 374 kts | 198° |
| 2026-04-14 06:24 | 40.24293 | -74.18070 | 17414 ft | 378 kts | 198° |
| 2026-04-14 06:24 | 40.21722 | -74.18851 | 18145 ft | 381 kts | 198° |
| 2026-04-14 06:24 | 40.19120 | -74.19630 | 18792 ft | 386 kts | 197° |
| 2026-04-14 06:24 | 40.16491 | -74.20415 | 19418 ft | 389 kts | 198° |
| 2026-04-14 06:25 | 40.13839 | -74.21206 | 20052 ft | 393 kts | 198° |
| 2026-04-14 06:25 | 40.11162 | -74.22007 | 20686 ft | 396 kts | 198° |
| 2026-04-14 06:25 | 40.10307 | -74.22263 | 20886 ft | 398 kts | 198° |
| 2026-04-14 06:25 | 40.10217 | -74.22290 | 20907 ft | 398 kts | 198° |
| 2026-04-14 06:26 | 40.07504 | -74.23098 | 21532 ft | 401 kts | 198° |
| 2026-04-14 06:26 | 40.04772 | -74.23910 | 22132 ft | 404 kts | 198° |
| 2026-04-14 06:26 | 40.04013 | -74.24136 | 22286 ft | 405 kts | 198° |
| 2026-04-14 06:27 | 40.02147 | -74.24834 | 22553 ft | 405 kts | 204° |
| 2026-04-14 06:27 | 39.99592 | -74.26346 | 23172 ft | 402 kts | 214° |
| 2026-04-14 06:28 | 39.97277 | -74.28358 | 23736 ft | 400 kts | 221° |
| 2026-04-14 06:28 | 39.95028 | -74.30527 | 24200 ft | 404 kts | 221° |
| 2026-04-14 06:28 | 39.92759 | -74.32702 | 24655 ft | 407 kts | 221° |
| 2026-04-14 06:28 | 39.90466 | -74.34884 | 25110 ft | 410 kts | 220° |
| 2026-04-14 06:29 | 39.88154 | -74.37076 | 25562 ft | 412 kts | 220° |
| 2026-04-14 06:29 | 39.85829 | -74.39278 | 26024 ft | 415 kts | 220° |
| 2026-04-14 06:29 | 39.83489 | -74.41496 | 26448 ft | 418 kts | 220° |
| 2026-04-14 06:29 | 39.81226 | -74.43863 | 26865 ft | 417 kts | 227° |
| 2026-04-14 06:30 | 39.79188 | -74.46555 | 27297 ft | 419 kts | 230° |
| 2026-04-14 06:30 | 39.77151 | -74.49278 | 27732 ft | 422 kts | 230° |
| 2026-04-14 06:30 | 39.75093 | -74.52015 | 28148 ft | 425 kts | 230° |
| 2026-04-14 06:30 | 39.73016 | -74.54765 | 28565 ft | 428 kts | 230° |
| 2026-04-14 06:31 | 39.70922 | -74.57533 | 28967 ft | 431 kts | 230° |
| 2026-04-14 06:31 | 39.68814 | -74.60315 | 29370 ft | 434 kts | 230° |
| 2026-04-14 06:31 | 39.66693 | -74.63114 | 29753 ft | 437 kts | 230° |
| 2026-04-14 06:31 | 39.64554 | -74.65933 | 30135 ft | 439 kts | 230° |
| 2026-04-14 06:32 | 39.62405 | -74.68764 | 30462 ft | 442 kts | 230° |
| 2026-04-14 06:32 | 39.60240 | -74.71611 | 30782 ft | 444 kts | 230° |
| 2026-04-14 06:32 | 39.58068 | -74.74465 | 31181 ft | 444 kts | 230° |
| 2026-04-14 06:32 | 39.55906 | -74.77307 | 31661 ft | 442 kts | 230° |
| 2026-04-14 06:33 | 39.53748 | -74.80143 | 32146 ft | 441 kts | 230° |
| 2026-04-14 06:33 | 39.51604 | -74.82963 | 32632 ft | 439 kts | 230° |
| 2026-04-14 06:33 | 39.49462 | -74.85774 | 33122 ft | 438 kts | 230° |
| 2026-04-14 06:34 | 39.45197 | -74.91361 | 34079 ft | 436 kts | 230° |
| 2026-04-14 06:34 | 39.43067 | -74.94142 | 34504 ft | 435 kts | 230° |
| 2026-04-14 06:34 | 39.40948 | -74.96911 | 34955 ft | 433 kts | 231° |
| 2026-04-14 06:34 | 39.38828 | -74.99683 | 35420 ft | 431 kts | 231° |
| 2026-04-14 06:35 | 39.37404 | -75.01546 | 35736 ft | 430 kts | 231° |
| 2026-04-14 06:35 | 39.34624 | -75.05173 | 36338 ft | 428 kts | 231° |
| 2026-04-14 06:35 | 39.33208 | -75.07015 | 36627 ft | 427 kts | 231° |
| 2026-04-14 06:35 | 39.31122 | -75.09729 | 37068 ft | 425 kts | 231° |
| 2026-04-14 06:36 | 39.29030 | -75.12415 | 37491 ft | 424 kts | 230° |
| 2026-04-14 06:36 | 39.26885 | -75.15023 | 37871 ft | 425 kts | 229° |
| 2026-04-14 06:36 | 39.24689 | -75.17583 | 38083 ft | 426 kts | 228° |
| 2026-04-14 06:36 | 39.22474 | -75.20112 | 38110 ft | 425 kts | 227° |
| 2026-04-14 06:37 | 39.18055 | -75.25158 | 38095 ft | 424 kts | 228° |
| 2026-04-14 06:37 | 39.13671 | -75.30234 | 38102 ft | 423 kts | 229° |
| 2026-04-14 06:38 | 39.09311 | -75.35333 | 38095 ft | 423 kts | 229° |
| 2026-04-14 06:38 | 39.04900 | -75.40383 | 38099 ft | 428 kts | 224° |
| 2026-04-14 06:39 | 38.99541 | -75.43979 | 38099 ft | 445 kts | 204° |
| 2026-04-14 06:39 | 38.96486 | -75.44854 | 38099 ft | 454 kts | 193° |
| 2026-04-14 06:39 | 38.93338 | -75.45297 | 38101 ft | 456 kts | 192° |
| 2026-04-14 06:40 | 38.87028 | -75.46155 | 38093 ft | 456 kts | 192° |
| 2026-04-14 06:40 | 38.80718 | -75.47020 | 38106 ft | 456 kts | 192° |
| 2026-04-14 06:41 | 38.74402 | -75.47897 | 38113 ft | 456 kts | 193° |
| 2026-04-14 06:41 | 38.68086 | -75.48771 | 38118 ft | 457 kts | 192° |
| 2026-04-14 06:42 | 38.61762 | -75.49631 | 38112 ft | 457 kts | 192° |
| 2026-04-14 06:42 | 38.55435 | -75.50481 | 38121 ft | 458 kts | 192° |
| 2026-04-14 06:43 | 38.49098 | -75.51330 | 38128 ft | 458 kts | 192° |
| 2026-04-14 06:43 | 38.42761 | -75.52184 | 38103 ft | 458 kts | 192° |
| 2026-04-14 06:44 | 38.36471 | -75.53268 | 38111 ft | 452 kts | 200° |
| 2026-04-14 06:44 | 38.30749 | -75.56206 | 38119 ft | 438 kts | 217° |
| 2026-04-14 06:45 | 38.25745 | -75.60518 | 38122 ft | 434 kts | 221° |
| 2026-04-14 06:45 | 38.20754 | -75.64861 | 38114 ft | 435 kts | 220° |
| 2026-04-14 06:46 | 38.13250 | -75.71371 | 38129 ft | 436 kts | 220° |
| 2026-04-14 06:47 | 38.08236 | -75.75714 | 38135 ft | 436 kts | 220° |
| 2026-04-14 06:47 | 38.03220 | -75.80062 | 38149 ft | 437 kts | 220° |
| 2026-04-14 06:48 | 37.98200 | -75.84397 | 38124 ft | 437 kts | 220° |
| 2026-04-14 06:48 | 37.93170 | -75.88730 | 38140 ft | 437 kts | 220° |
| 2026-04-14 06:49 | 37.88138 | -75.93060 | 38148 ft | 438 kts | 220° |
| 2026-04-14 06:49 | 37.83100 | -75.97392 | 38149 ft | 438 kts | 220° |
| 2026-04-14 06:50 | 37.78067 | -76.01720 | 38130 ft | 438 kts | 220° |
| 2026-04-14 06:50 | 37.73027 | -76.06049 | 38138 ft | 438 kts | 220° |
| 2026-04-14 06:51 | 37.67979 | -76.10369 | 38153 ft | 438 kts | 219° |
| 2026-04-14 06:51 | 37.62926 | -76.14681 | 38161 ft | 439 kts | 219° |
| 2026-04-14 06:52 | 37.57348 | -76.18004 | 38165 ft | 450 kts | 204° |
| 2026-04-14 06:52 | 37.51393 | -76.20464 | 38172 ft | 450 kts | 204° |
| 2026-04-14 06:53 | 37.45438 | -76.22926 | 38179 ft | 450 kts | 204° |
| 2026-04-14 06:53 | 37.39483 | -76.25392 | 38177 ft | 450 kts | 204° |
| 2026-04-14 06:54 | 37.33533 | -76.27863 | 38176 ft | 450 kts | 204° |
| 2026-04-14 06:54 | 37.27578 | -76.30325 | 38186 ft | 450 kts | 204° |
| 2026-04-14 06:55 | 37.21621 | -76.32774 | 38198 ft | 450 kts | 204° |
| 2026-04-14 06:55 | 37.15666 | -76.35221 | 38184 ft | 450 kts | 204° |
| 2026-04-14 06:56 | 37.09711 | -76.37673 | 38189 ft | 451 kts | 204° |
| 2026-04-14 06:56 | 37.03752 | -76.40122 | 38194 ft | 451 kts | 203° |
| 2026-04-14 06:57 | 36.97789 | -76.42565 | 38208 ft | 451 kts | 203° |
| 2026-04-14 06:57 | 36.91822 | -76.45007 | 38198 ft | 451 kts | 203° |
| 2026-04-14 06:58 | 36.85848 | -76.47447 | 38209 ft | 452 kts | 203° |
| 2026-04-14 06:58 | 36.79871 | -76.49883 | 38212 ft | 452 kts | 203° |
| 2026-04-14 06:59 | 36.73893 | -76.52314 | 38215 ft | 452 kts | 203° |
| 2026-04-14 06:59 | 36.67913 | -76.54748 | 38211 ft | 452 kts | 203° |
| 2026-04-14 07:00 | 36.61932 | -76.57172 | 38216 ft | 452 kts | 203° |
| 2026-04-14 07:00 | 36.55946 | -76.59597 | 38228 ft | 452 kts | 203° |
| 2026-04-14 07:01 | 36.49960 | -76.62013 | 38230 ft | 452 kts | 203° |
| 2026-04-14 07:01 | 36.43926 | -76.64441 | 38216 ft | 453 kts | 203° |
| 2026-04-14 07:02 | 36.37933 | -76.66853 | 38230 ft | 453 kts | 203° |
| 2026-04-14 07:02 | 36.31936 | -76.69276 | 38237 ft | 453 kts | 203° |
| 2026-04-14 07:03 | 36.25935 | -76.71695 | 38250 ft | 453 kts | 203° |
| 2026-04-14 07:03 | 36.19929 | -76.74098 | 38248 ft | 454 kts | 203° |
| 2026-04-14 07:04 | 36.13924 | -76.76499 | 38247 ft | 454 kts | 203° |
| 2026-04-14 07:04 | 36.07912 | -76.78902 | 38257 ft | 454 kts | 203° |
| 2026-04-14 07:05 | 36.01900 | -76.81304 | 38257 ft | 454 kts | 202° |
| 2026-04-14 07:05 | 35.95882 | -76.83697 | 38249 ft | 454 kts | 202° |
| 2026-04-14 07:06 | 35.89945 | -76.86310 | 38252 ft | 450 kts | 211° |
| 2026-04-14 07:06 | 35.84360 | -76.89757 | 38257 ft | 449 kts | 211° |
| 2026-04-14 07:07 | 35.78779 | -76.93203 | 38263 ft | 449 kts | 211° |
| 2026-04-14 07:07 | 35.73192 | -76.96645 | 38255 ft | 449 kts | 211° |
| 2026-04-14 07:08 | 35.67604 | -77.00075 | 38256 ft | 449 kts | 211° |
| 2026-04-14 07:08 | 35.62009 | -77.03505 | 38257 ft | 449 kts | 211° |
| 2026-04-14 07:09 | 35.56413 | -77.06934 | 38259 ft | 449 kts | 211° |
| 2026-04-14 07:09 | 35.50813 | -77.10353 | 38243 ft | 450 kts | 211° |
| 2026-04-14 07:10 | 35.45207 | -77.13778 | 38249 ft | 450 kts | 211° |
| 2026-04-14 07:10 | 35.39591 | -77.17198 | 38258 ft | 451 kts | 211° |
| 2026-04-14 07:11 | 35.33972 | -77.20617 | 38266 ft | 451 kts | 211° |
| 2026-04-14 07:11 | 35.28349 | -77.24031 | 38265 ft | 451 kts | 211° |
| 2026-04-14 07:12 | 35.22727 | -77.27443 | 38273 ft | 451 kts | 211° |
| 2026-04-14 07:12 | 35.18056 | -77.30275 | 38280 ft | 451 kts | 211° |
| 2026-04-14 07:13 | 35.12435 | -77.33678 | 38284 ft | 451 kts | 211° |
| 2026-04-14 07:13 | 35.06812 | -77.37072 | 38276 ft | 451 kts | 211° |
| 2026-04-14 07:14 | 35.01181 | -77.40458 | 38277 ft | 451 kts | 211° |
| 2026-04-14 07:14 | 34.95548 | -77.43848 | 38280 ft | 451 kts | 211° |
| 2026-04-14 07:15 | 34.89917 | -77.47241 | 38276 ft | 451 kts | 211° |
| 2026-04-14 07:15 | 34.84285 | -77.50628 | 38263 ft | 452 kts | 211° |
| 2026-04-14 07:16 | 34.78645 | -77.54000 | 38267 ft | 452 kts | 211° |
| 2026-04-14 07:16 | 34.73001 | -77.57374 | 38266 ft | 452 kts | 211° |
| 2026-04-14 07:17 | 34.67358 | -77.60746 | 38264 ft | 452 kts | 211° |
| 2026-04-14 07:17 | 34.61713 | -77.64113 | 38275 ft | 452 kts | 211° |
| 2026-04-14 07:18 | 34.55992 | -77.67296 | 38275 ft | 456 kts | 202° |
| 2026-04-14 07:18 | 34.49782 | -77.69070 | 38278 ft | 460 kts | 196° |
| 2026-04-14 07:19 | 34.43517 | -77.70657 | 38284 ft | 460 kts | 196° |
| 2026-04-14 07:19 | 34.37253 | -77.72251 | 38285 ft | 460 kts | 196° |
| 2026-04-14 07:20 | 34.30993 | -77.73847 | 38276 ft | 460 kts | 196° |
| 2026-04-14 07:20 | 34.24728 | -77.75439 | 38280 ft | 460 kts | 196° |
| 2026-04-14 07:21 | 34.18420 | -77.77038 | 38278 ft | 460 kts | 196° |
| 2026-04-14 07:21 | 34.12194 | -77.78606 | 38271 ft | 460 kts | 195° |
| 2026-04-14 07:22 | 34.05927 | -77.80188 | 38275 ft | 460 kts | 195° |
| 2026-04-14 07:22 | 33.99660 | -77.81775 | 38271 ft | 460 kts | 195° |
| 2026-04-14 07:23 | 33.93350 | -77.83359 | 38273 ft | 460 kts | 195° |
| 2026-04-14 07:23 | 33.87079 | -77.84935 | 38264 ft | 460 kts | 195° |
| 2026-04-14 07:24 | 33.80809 | -77.86514 | 38267 ft | 460 kts | 195° |
| 2026-04-14 07:24 | 33.74587 | -77.88288 | 38272 ft | 459 kts | 199° |
| 2026-04-14 07:25 | 33.68470 | -77.90449 | 38270 ft | 458 kts | 201° |
| 2026-04-14 07:25 | 33.62369 | -77.92647 | 38275 ft | 458 kts | 200° |
| 2026-04-14 07:26 | 33.56236 | -77.94752 | 38271 ft | 459 kts | 199° |
| 2026-04-14 07:26 | 33.50086 | -77.96807 | 38263 ft | 459 kts | 199° |
| 2026-04-14 07:27 | 33.43936 | -77.98870 | 38267 ft | 459 kts | 199° |
| 2026-04-14 07:27 | 33.37789 | -78.00940 | 38275 ft | 459 kts | 199° |
| 2026-04-14 07:28 | 33.31642 | -78.03009 | 38264 ft | 459 kts | 199° |
| 2026-04-14 07:28 | 33.25493 | -78.05075 | 38271 ft | 459 kts | 199° |
| 2026-04-14 07:29 | 33.19346 | -78.07145 | 38268 ft | 459 kts | 199° |
| 2026-04-14 07:29 | 33.13200 | -78.09208 | 38269 ft | 459 kts | 199° |
| 2026-04-14 07:30 | 33.07050 | -78.11271 | 38265 ft | 459 kts | 199° |
| 2026-04-14 07:30 | 33.00908 | -78.13324 | 38274 ft | 458 kts | 199° |
| 2026-04-14 07:31 | 32.94768 | -78.15375 | 38276 ft | 458 kts | 199° |
| 2026-04-14 07:31 | 32.88634 | -78.17417 | 38272 ft | 458 kts | 199° |
| 2026-04-14 07:32 | 32.82500 | -78.19458 | 38270 ft | 458 kts | 199° |
| 2026-04-14 07:32 | 32.76368 | -78.21496 | 38264 ft | 457 kts | 199° |
| 2026-04-14 07:33 | 32.70238 | -78.23529 | 38262 ft | 457 kts | 199° |
| 2026-04-14 07:33 | 32.64106 | -78.25561 | 38261 ft | 458 kts | 199° |
| 2026-04-14 07:34 | 32.51847 | -78.29619 | 38275 ft | 457 kts | 199° |
| 2026-04-14 07:35 | 32.45727 | -78.31643 | 38277 ft | 456 kts | 199° |
| 2026-04-14 07:35 | 32.39609 | -78.33651 | 38286 ft | 456 kts | 199° |
| 2026-04-14 07:36 | 32.33493 | -78.35665 | 38269 ft | 456 kts | 199° |
| 2026-04-14 07:36 | 32.27386 | -78.37675 | 38285 ft | 455 kts | 199° |
| 2026-04-14 07:37 | 32.21288 | -78.39670 | 38285 ft | 455 kts | 199° |
| 2026-04-14 07:37 | 32.15195 | -78.41663 | 38288 ft | 454 kts | 199° |
| 2026-04-14 07:38 | 32.09110 | -78.43661 | 38288 ft | 454 kts | 199° |
| 2026-04-14 07:38 | 32.03029 | -78.45646 | 38291 ft | 453 kts | 200° |
| 2026-04-14 07:39 | 31.96964 | -78.47620 | 38296 ft | 452 kts | 200° |
| 2026-04-14 07:39 | 31.90914 | -78.49597 | 38295 ft | 451 kts | 200° |
| 2026-04-14 07:40 | 31.84880 | -78.51569 | 38292 ft | 450 kts | 200° |
| 2026-04-14 07:40 | 31.78837 | -78.53534 | 38286 ft | 450 kts | 200° |
| 2026-04-14 07:41 | 31.72810 | -78.55486 | 38294 ft | 449 kts | 200° |
| 2026-04-14 07:41 | 31.66790 | -78.57437 | 38293 ft | 448 kts | 200° |
| 2026-04-14 07:42 | 31.60777 | -78.59388 | 38291 ft | 448 kts | 200° |
| 2026-04-14 07:42 | 31.54765 | -78.61333 | 38278 ft | 448 kts | 200° |
| 2026-04-14 07:43 | 31.48784 | -78.63335 | 38293 ft | 446 kts | 201° |
| 2026-04-14 07:43 | 31.42835 | -78.65395 | 38296 ft | 445 kts | 201° |
| 2026-04-14 07:44 | 31.36897 | -78.67451 | 38296 ft | 445 kts | 201° |
| 2026-04-14 07:44 | 31.30956 | -78.69483 | 38285 ft | 445 kts | 201° |
| 2026-04-14 07:45 | 31.25011 | -78.71508 | 38281 ft | 445 kts | 201° |
| 2026-04-14 07:45 | 31.19078 | -78.73530 | 38289 ft | 444 kts | 201° |
| 2026-04-14 07:46 | 31.13147 | -78.75548 | 38290 ft | 444 kts | 201° |
| 2026-04-14 07:46 | 31.07220 | -78.77559 | 38287 ft | 444 kts | 201° |
| 2026-04-14 07:47 | 31.01295 | -78.79572 | 38276 ft | 443 kts | 201° |
| 2026-04-14 07:47 | 30.95379 | -78.81579 | 38290 ft | 442 kts | 202° |
| 2026-04-14 07:48 | 30.89472 | -78.83578 | 38285 ft | 442 kts | 201° |
| 2026-04-14 07:48 | 30.83566 | -78.85568 | 38287 ft | 442 kts | 201° |
| 2026-04-14 07:49 | 30.77670 | -78.87567 | 38285 ft | 441 kts | 202° |
| 2026-04-14 07:49 | 30.71778 | -78.89560 | 38277 ft | 441 kts | 202° |
| 2026-04-14 07:50 | 30.65892 | -78.91533 | 38284 ft | 440 kts | 202° |
| 2026-04-14 07:50 | 30.60022 | -78.93509 | 38291 ft | 439 kts | 202° |
| 2026-04-14 07:51 | 30.54153 | -78.95486 | 38288 ft | 439 kts | 202° |
| 2026-04-14 07:51 | 30.49240 | -78.97134 | 38282 ft | 439 kts | 202° |
| 2026-04-14 07:52 | 30.43378 | -78.99104 | 38271 ft | 439 kts | 202° |
| 2026-04-14 07:52 | 30.37459 | -79.00890 | 38271 ft | 441 kts | 198° |
| 2026-04-14 07:53 | 30.31450 | -79.02387 | 38271 ft | 442 kts | 197° |
| 2026-04-14 07:53 | 30.25435 | -79.03866 | 38272 ft | 442 kts | 198° |
| 2026-04-14 07:54 | 30.19441 | -79.05413 | 38272 ft | 441 kts | 198° |
| 2026-04-14 07:54 | 30.13458 | -79.07001 | 38274 ft | 441 kts | 198° |
| 2026-04-14 07:55 | 30.07476 | -79.08575 | 38275 ft | 441 kts | 198° |
| 2026-04-14 07:55 | 30.01495 | -79.10143 | 38275 ft | 441 kts | 198° |
| 2026-04-14 07:56 | 29.95514 | -79.11697 | 38276 ft | 441 kts | 198° |
| 2026-04-14 07:56 | 29.89533 | -79.13253 | 38262 ft | 441 kts | 198° |
| 2026-04-14 07:57 | 29.83550 | -79.14801 | 38264 ft | 441 kts | 198° |
| 2026-04-14 07:57 | 29.77565 | -79.16339 | 38262 ft | 441 kts | 198° |
| 2026-04-14 07:58 | 29.71573 | -79.17865 | 38266 ft | 441 kts | 198° |
| 2026-04-14 07:58 | 29.65582 | -79.19382 | 38250 ft | 441 kts | 197° |
| 2026-04-14 07:59 | 29.59593 | -79.20901 | 38263 ft | 440 kts | 197° |
| 2026-04-14 07:59 | 29.53611 | -79.22423 | 38265 ft | 440 kts | 197° |
| 2026-04-14 08:00 | 29.47633 | -79.23947 | 38266 ft | 440 kts | 197° |
| 2026-04-14 08:00 | 29.41652 | -79.25463 | 38266 ft | 440 kts | 197° |
| 2026-04-14 08:01 | 29.35675 | -79.26977 | 38260 ft | 440 kts | 197° |
| 2026-04-14 08:01 | 29.29699 | -79.28490 | 38261 ft | 440 kts | 197° |
| 2026-04-14 08:02 | 29.23727 | -79.30004 | 38260 ft | 440 kts | 197° |
| 2026-04-14 08:02 | 29.17756 | -79.31519 | 38264 ft | 440 kts | 197° |
| 2026-04-14 08:03 | 29.11784 | -79.33032 | 38260 ft | 440 kts | 197° |
| 2026-04-14 08:03 | 29.05802 | -79.34533 | 38234 ft | 441 kts | 197° |
| 2026-04-14 08:04 | 28.99804 | -79.36037 | 38239 ft | 442 kts | 197° |
| 2026-04-14 08:04 | 28.93790 | -79.37536 | 38233 ft | 443 kts | 197° |
| 2026-04-14 08:05 | 28.87770 | -79.39047 | 38236 ft | 443 kts | 197° |
| 2026-04-14 08:05 | 28.81743 | -79.40556 | 38228 ft | 444 kts | 197° |
| 2026-04-14 08:06 | 28.75710 | -79.42073 | 38227 ft | 445 kts | 197° |
| 2026-04-14 08:06 | 28.69743 | -79.43561 | 38228 ft | 445 kts | 196° |
| 2026-04-14 08:07 | 28.63687 | -79.45070 | 38242 ft | 445 kts | 196° |
| 2026-04-14 08:07 | 28.57641 | -79.46583 | 38245 ft | 445 kts | 196° |
| 2026-04-14 08:08 | 28.51580 | -79.48091 | 38011 ft | 446 kts | 196° |
| 2026-04-14 08:08 | 28.48551 | -79.48849 | 37745 ft | 446 kts | 196° |
| 2026-04-14 08:08 | 28.45512 | -79.49609 | 37479 ft | 447 kts | 196° |
| 2026-04-14 08:08 | 28.42580 | -79.50340 | 37229 ft | 448 kts | 196° |
| 2026-04-14 08:09 | 28.39532 | -79.51096 | 36973 ft | 449 kts | 196° |
| 2026-04-14 08:09 | 28.36475 | -79.51854 | 36717 ft | 450 kts | 196° |
| 2026-04-14 08:09 | 28.33416 | -79.52612 | 36466 ft | 451 kts | 196° |
| 2026-04-14 08:09 | 28.30348 | -79.53373 | 36216 ft | 452 kts | 196° |
| 2026-04-14 08:10 | 28.27281 | -79.54159 | 35952 ft | 452 kts | 197° |
| 2026-04-14 08:10 | 28.24214 | -79.54985 | 35054 ft | 457 kts | 198° |
| 2026-04-14 08:10 | 28.21106 | -79.55851 | 34156 ft | 462 kts | 198° |
| 2026-04-14 08:10 | 28.17967 | -79.56734 | 32990 ft | 468 kts | 198° |
| 2026-04-14 08:11 | 28.14787 | -79.57624 | 31844 ft | 473 kts | 197° |
| 2026-04-14 08:11 | 28.11571 | -79.58514 | 30686 ft | 478 kts | 196° |
| 2026-04-14 08:11 | 28.08321 | -79.59403 | 29422 ft | 482 kts | 196° |
| 2026-04-14 08:11 | 28.05086 | -79.60276 | 28743 ft | 472 kts | 196° |
| 2026-04-14 08:12 | 28.01914 | -79.61128 | 27976 ft | 465 kts | 195° |
| 2026-04-14 08:12 | 27.95771 | -79.62787 | 26347 ft | 457 kts | 195° |
| 2026-04-14 08:12 | 27.92724 | -79.63608 | 25781 ft | 446 kts | 195° |
| 2026-04-14 08:13 | 27.89717 | -79.64418 | 25050 ft | 442 kts | 195° |
| 2026-04-14 08:13 | 27.86739 | -79.65226 | 24336 ft | 438 kts | 196° |
| 2026-04-14 08:13 | 27.83789 | -79.66032 | 23600 ft | 434 kts | 196° |
| 2026-04-14 08:13 | 27.80875 | -79.66826 | 22870 ft | 428 kts | 196° |
| 2026-04-14 08:14 | 27.78003 | -79.67603 | 22223 ft | 421 kts | 195° |
| 2026-04-14 08:14 | 27.75165 | -79.68369 | 21583 ft | 416 kts | 195° |
| 2026-04-14 08:14 | 27.72363 | -79.69125 | 20982 ft | 412 kts | 195° |
| 2026-04-14 08:14 | 27.69586 | -79.69871 | 20401 ft | 408 kts | 195° |
| 2026-04-14 08:15 | 27.66837 | -79.70609 | 19826 ft | 404 kts | 195° |
| 2026-04-14 08:15 | 27.64117 | -79.71345 | 19267 ft | 400 kts | 194° |
| 2026-04-14 08:15 | 27.61395 | -79.72083 | 18542 ft | 407 kts | 194° |
| 2026-04-14 08:15 | 27.58632 | -79.72831 | 17719 ft | 408 kts | 194° |
| 2026-04-14 08:16 | 27.55882 | -79.73569 | 16985 ft | 405 kts | 194° |
| 2026-04-14 08:16 | 27.53153 | -79.74299 | 16249 ft | 402 kts | 194° |
| 2026-04-14 08:16 | 27.50443 | -79.75026 | 15512 ft | 398 kts | 194° |
| 2026-04-14 08:16 | 27.47762 | -79.75745 | 14694 ft | 396 kts | 193° |
| 2026-04-14 08:17 | 27.45071 | -79.76467 | 13794 ft | 397 kts | 193° |
| 2026-04-14 08:17 | 27.42410 | -79.77180 | 13047 ft | 390 kts | 193° |
| 2026-04-14 08:17 | 27.39893 | -79.77853 | 12366 ft | 382 kts | 193° |
| 2026-04-14 08:17 | 27.37327 | -79.78542 | 11673 ft | 375 kts | 192° |
| 2026-04-14 08:18 | 27.34810 | -79.79219 | 10987 ft | 369 kts | 192° |
| 2026-04-14 08:18 | 27.32342 | -79.79885 | 10562 ft | 357 kts | 192° |
| 2026-04-14 08:18 | 27.29996 | -79.80520 | 10444 ft | 337 kts | 192° |
| 2026-04-14 08:18 | 27.27775 | -79.81120 | 10329 ft | 320 kts | 192° |
| 2026-04-14 08:19 | 27.25658 | -79.81689 | 10206 ft | 306 kts | 191° |
| 2026-04-14 08:19 | 27.23610 | -79.82237 | 9935 ft | 299 kts | 191° |
| 2026-04-14 08:19 | 27.21571 | -79.82795 | 9791 ft | 297 kts | 194° |
| 2026-04-14 08:19 | 27.19690 | -79.83680 | 9604 ft | 299 kts | 206° |
| 2026-04-14 08:20 | 27.17833 | -79.84784 | 9204 ft | 297 kts | 206° |
| 2026-04-14 08:20 | 27.16010 | -79.85874 | 8792 ft | 296 kts | 206° |
| 2026-04-14 08:20 | 27.14215 | -79.86946 | 8379 ft | 295 kts | 206° |
| 2026-04-14 08:20 | 27.12380 | -79.88041 | 7956 ft | 294 kts | 205° |
| 2026-04-14 08:21 | 27.10572 | -79.89118 | 7548 ft | 294 kts | 205° |
| 2026-04-14 08:21 | 27.08797 | -79.90177 | 7191 ft | 291 kts | 205° |
| 2026-04-14 08:21 | 27.06979 | -79.91257 | 6765 ft | 291 kts | 205° |
| 2026-04-14 08:21 | 27.05189 | -79.92322 | 6358 ft | 290 kts | 205° |
| 2026-04-14 08:22 | 27.03413 | -79.93378 | 5981 ft | 287 kts | 205° |
| 2026-04-14 08:22 | 27.01651 | -79.94426 | 5576 ft | 286 kts | 204° |
| 2026-04-14 08:22 | 26.99899 | -79.95467 | 5177 ft | 285 kts | 205° |
| 2026-04-14 08:22 | 26.98159 | -79.96502 | 4763 ft | 284 kts | 205° |
| 2026-04-14 08:23 | 26.96434 | -79.97528 | 4460 ft | 278 kts | 205° |
| 2026-04-14 08:23 | 26.94768 | -79.98635 | 4052 ft | 280 kts | 213° |
| 2026-04-14 08:23 | 26.93246 | -79.99962 | 3969 ft | 276 kts | 215° |
| 2026-04-14 08:23 | 26.91726 | -80.01274 | 3982 ft | 275 kts | 214° |
| 2026-04-14 08:24 | 26.90204 | -80.02580 | 3988 ft | 276 kts | 214° |
| 2026-04-14 08:24 | 26.88679 | -80.03885 | 3988 ft | 276 kts | 214° |
| 2026-04-14 08:24 | 26.87154 | -80.05194 | 3992 ft | 276 kts | 215° |
| 2026-04-14 08:24 | 26.85634 | -80.06500 | 3991 ft | 276 kts | 214° |
| 2026-04-14 08:25 | 26.84132 | -80.07793 | 3990 ft | 265 kts | 214° |
| 2026-04-14 08:25 | 26.82721 | -80.09019 | 3992 ft | 249 kts | 214° |
| 2026-04-14 08:25 | 26.81483 | -80.10292 | 3996 ft | 237 kts | 230° |
| 2026-04-14 08:25 | 26.80918 | -80.11313 | 3981 ft | 230 kts | 243° |
| 2026-04-14 08:26 | 26.80457 | -80.13554 | 3986 ft | 218 kts | 265° |
| 2026-04-14 08:26 | 26.80350 | -80.15171 | 3940 ft | 210 kts | 264° |
| 2026-04-14 08:26 | 26.80231 | -80.16771 | 3900 ft | 204 kts | 264° |
| 2026-04-14 08:26 | 26.80103 | -80.18325 | 3857 ft | 198 kts | 264° |
| 2026-04-14 08:27 | 26.79968 | -80.19850 | 3804 ft | 196 kts | 263° |
| 2026-04-14 08:27 | 26.79825 | -80.21368 | 3766 ft | 196 kts | 263° |
| 2026-04-14 08:27 | 26.79729 | -80.22373 | 3736 ft | 196 kts | 263° |
| 2026-04-14 08:27 | 26.79534 | -80.24396 | 3679 ft | 195 kts | 263° |
| 2026-04-14 08:28 | 26.79385 | -80.25906 | 3640 ft | 195 kts | 263° |
| 2026-04-14 08:28 | 26.79234 | -80.27413 | 3597 ft | 195 kts | 263° |
| 2026-04-14 08:28 | 26.79133 | -80.28412 | 3559 ft | 194 kts | 263° |
| 2026-04-14 08:28 | 26.78982 | -80.29910 | 3527 ft | 194 kts | 263° |
| 2026-04-14 08:29 | 26.78831 | -80.31408 | 3479 ft | 193 kts | 263° |
| 2026-04-14 08:29 | 26.78670 | -80.32902 | 3437 ft | 194 kts | 259° |
| 2026-04-14 08:29 | 26.78112 | -80.34245 | 3284 ft | 190 kts | 224° |
| 2026-04-14 08:29 | 26.77080 | -80.35013 | 3193 ft | 182 kts | 192° |
| 2026-04-14 08:30 | 26.75885 | -80.35148 | 3136 ft | 178 kts | 177° |
| 2026-04-14 08:30 | 26.74656 | -80.35090 | 3040 ft | 176 kts | 172° |
| 2026-04-14 08:30 | 26.73435 | -80.35020 | 2989 ft | 175 kts | 171° |
| 2026-04-14 08:30 | 26.72219 | -80.34947 | 2993 ft | 175 kts | 171° |
| 2026-04-14 08:31 | 26.71004 | -80.34852 | 2989 ft | 174 kts | 165° |
| 2026-04-14 08:31 | 26.69351 | -80.33234 | 2994 ft | 161 kts | 105° |
| 2026-04-14 08:31 | 26.69226 | -80.32001 | 2998 ft | 160 kts | 92° |
| 2026-04-14 08:32 | 26.69178 | -80.30758 | 2994 ft | 160 kts | 92° |
| 2026-04-14 08:32 | 26.69125 | -80.29515 | 2992 ft | 160 kts | 92° |
| 2026-04-14 08:32 | 26.69071 | -80.28272 | 2985 ft | 160 kts | 92° |
| 2026-04-14 08:32 | 26.69015 | -80.27027 | 2850 ft | 160 kts | 92° |
| 2026-04-14 08:33 | 26.68960 | -80.25771 | 2669 ft | 159 kts | 92° |
| 2026-04-14 08:33 | 26.68908 | -80.24554 | 2472 ft | 158 kts | 92° |
| 2026-04-14 08:33 | 26.68855 | -80.23315 | 2266 ft | 157 kts | 92° |
| 2026-04-14 08:33 | 26.68805 | -80.22129 | 2080 ft | 150 kts | 92° |
| 2026-04-14 08:34 | 26.68757 | -80.21004 | 1869 ft | 143 kts | 92° |
| 2026-04-14 08:34 | 26.68711 | -80.19935 | 1684 ft | 129 kts | 92° |
| 2026-04-14 08:34 | 26.68670 | -80.18970 | 1521 ft | 121 kts | 92° |
| 2026-04-14 08:34 | 26.68631 | -80.18051 | 1373 ft | 114 kts | 92° |
| 2026-04-14 08:35 | 26.68594 | -80.17185 | 1202 ft | 110 kts | 93° |
| 2026-04-14 08:35 | 26.68559 | -80.16345 | 1068 ft | 107 kts | 92° |
| 2026-04-14 08:35 | 26.68520 | -80.15516 | 986 ft | 107 kts | 90° |
| 2026-04-14 08:35 | 26.68497 | -80.14685 | 898 ft | 108 kts | 92° |
| 2026-04-14 08:36 | 26.68468 | -80.13849 | 753 ft | 106 kts | 93° |
| 2026-04-14 08:36 | 26.68433 | -80.13005 | 561 ft | 111 kts | 96° |
| 2026-04-14 08:36 | 26.68385 | -80.12153 | 355 ft | 108 kts | 97° |
| 2026-04-14 08:36 | 26.68343 | -80.11324 | 219 ft | 109 kts | 95° |
| 2026-04-14 08:37 | 26.68309 | -80.10495 | 79 ft | 106 kts | 94° |
| 2026-04-14 08:37 | 26.68268 | -80.09712 | 26 ft | 91 kts | 93° |
| 2026-04-14 08:37 | 26.68250 | -80.09185 | 22 ft | 33 kts | 92° |
| 2026-04-14 08:37 | 26.68241 | -80.08945 | 22 ft | 29 kts | 93° |
| 2026-04-14 08:38 | 26.68296 | -80.08845 | 22 ft | 0 kts | 2° |
| 2026-04-14 08:38 | 26.68304 | -80.08844 | 22 ft | 3 kts | 2° |
| 2026-04-14 08:38 | 26.68310 | -80.08844 | 22 ft | 0 kts | 2° |
| 2026-04-14 08:38 | 26.68311 | -80.08844 | 22 ft | 1 kts | 1° |
| 2026-04-14 08:39 | 26.68329 | -80.08850 | 23 ft | 4 kts | 330° |
| 2026-04-14 08:39 | 26.68345 | -80.08892 | 22 ft | 8 kts | 279° |
| 2026-04-14 08:39 | 26.68349 | -80.08971 | 22 ft | 12 kts | 273° |
| 2026-04-14 08:39 | 26.68353 | -80.09058 | 22 ft | 2 kts | 274° |
| 2026-04-14 08:40 | 26.68371 | -80.09087 | 23 ft | 6 kts | 331° |
| 2026-04-14 08:40 | 26.68429 | -80.09099 | 24 ft | 10 kts | 358° |
| 2026-04-14 08:40 | 26.68514 | -80.09094 | 22 ft | 14 kts | 3° |
| 2026-04-14 08:40 | 26.68607 | -80.09092 | 22 ft | 13 kts | 348° |
| 2026-04-14 08:41 | 26.68626 | -80.09168 | 22 ft | 11 kts | 248° |
| 2026-04-14 08:41 | 26.68604 | -80.09232 | 22 ft | 7 kts | 285° |
| 2026-04-14 08:41 | 26.68637 | -80.09271 | 22 ft | 7 kts | 318° |
| 2026-04-14 08:41 | 26.68645 | -80.09279 | 22 ft | 0 kts | 318° |